createdAt,value
2022-10-01T00:02:09.491Z,33.10
2022-10-01T00:04:39.720Z,32.42
2022-10-01T00:07:11.055Z,32.25
2022-10-01T00:09:39.908Z,30.73
2022-10-01T00:14:38.578Z,31.85
2022-10-01T00:17:08.484Z,32.58
2022-10-01T00:19:36.947Z,33.38
2022-10-01T00:22:05.479Z,35.35
2022-10-01T00:24:33.863Z,34.45
2022-10-01T00:27:02.273Z,35.88
2022-10-01T00:29:31.885Z,32.90
2022-10-01T00:32:00.382Z,31.85
2022-10-01T00:34:30.193Z,35.47
2022-10-01T00:36:58.661Z,33.42
2022-10-01T00:39:27.006Z,35.97
2022-10-01T00:41:55.340Z,33.95
2022-10-01T00:44:32.314Z,33.38
2022-10-01T00:47:06.229Z,34.65
2022-10-01T00:49:39.236Z,33.22
2022-10-01T00:52:13.289Z,34.47
2022-10-01T00:54:45.680Z,36.65
2022-10-01T00:57:17.310Z,37.88
2022-10-01T00:59:46.952Z,34.15
2022-10-01T01:02:15.630Z,35.38
2022-10-01T01:04:45.420Z,32.38
2022-10-01T01:07:14.231Z,36.08
2022-10-01T01:12:27.661Z,35.83
2022-10-01T01:15:07.420Z,36.00
2022-10-01T01:17:43.719Z,35.45
2022-10-01T01:20:40.230Z,34.42
2022-10-01T01:23:29.539Z,31.65
2022-10-01T01:26:08.865Z,32.70
2022-10-01T01:28:42.111Z,35.03
2022-10-01T01:31:15.237Z,36.08
2022-10-01T01:33:47.154Z,44.78
2022-10-01T01:36:19.678Z,37.72
2022-10-01T01:38:54.892Z,39.25
2022-10-01T01:41:26.851Z,48.08
2022-10-01T01:44:01.187Z,46.13
2022-10-01T01:46:34.809Z,35.47
2022-10-01T01:49:05.455Z,37.42
2022-10-01T01:51:41.415Z,37.10
2022-10-01T01:54:10.160Z,41.88
2022-10-01T01:56:38.929Z,47.25
2022-10-01T02:01:39.429Z,40.53
2022-10-01T02:04:11.001Z,43.83
2022-10-01T02:06:59.128Z,40.30
2022-10-01T02:09:31.740Z,45.92
2022-10-01T02:12:11.107Z,42.88
2022-10-01T02:14:54.404Z,47.03
2022-10-01T02:17:32.484Z,51.60
2022-10-01T02:20:10.185Z,49.30
2022-10-01T02:22:43.755Z,46.53
2022-10-01T02:25:15.306Z,55.00
2022-10-01T02:27:49.845Z,47.40
2022-10-01T02:30:20.060Z,57.78
2022-10-01T02:32:51.268Z,55.78
2022-10-01T02:35:26.938Z,53.17
2022-10-01T02:37:57.844Z,52.70
2022-10-01T02:40:28.702Z,56.22
2022-10-01T02:43:03.105Z,55.85
2022-10-01T02:45:37.997Z,65.95
2022-10-01T02:48:12.667Z,57.35
2022-10-01T02:50:47.285Z,64.13
2022-10-01T02:53:23.962Z,63.88
2022-10-01T02:55:54.134Z,56.03
2022-10-01T02:58:27.518Z,64.25
2022-10-01T03:01:04.901Z,73.32
2022-10-01T03:03:33.338Z,81.47
2022-10-01T03:06:07.900Z,70.97
2022-10-01T03:08:37.721Z,73.40
2022-10-01T03:11:08.683Z,86.82
2022-10-01T03:13:40.877Z,115.22
2022-10-01T03:16:13.404Z,68.88
2022-10-01T03:18:41.920Z,77.95
2022-10-01T03:21:10.676Z,72.15
2022-10-01T03:23:39.296Z,76.20
2022-10-01T03:26:07.945Z,66.82
2022-10-01T03:28:36.695Z,84.35
2022-10-01T03:31:11.362Z,68.32
2022-10-01T03:33:41.445Z,71.97
2022-10-01T03:36:10.158Z,87.50
2022-10-01T03:41:07.459Z,90.32
2022-10-01T03:46:06.140Z,71.47
2022-10-01T03:48:50.790Z,72.80
2022-10-01T03:51:20.927Z,66.28
2022-10-01T03:53:49.594Z,72.75
2022-10-01T03:56:18.979Z,72.05
2022-10-01T03:58:47.359Z,65.13
2022-10-01T04:01:15.856Z,72.93
2022-10-01T04:03:44.531Z,77.07
2022-10-01T04:06:14.899Z,76.57
2022-10-01T04:08:43.725Z,71.93
2022-10-01T04:11:12.502Z,59.53
2022-10-01T04:13:41.012Z,71.70
2022-10-01T04:16:12.477Z,71.97
2022-10-01T04:18:41.077Z,61.90
2022-10-01T04:21:15.476Z,77.30
2022-10-01T04:23:44.638Z,64.47
2022-10-01T04:26:15.448Z,60.72
2022-10-01T04:28:49.069Z,69.47
2022-10-01T04:31:26.658Z,65.95
2022-10-01T04:33:56.622Z,58.67
2022-10-01T04:36:38.726Z,75.88
2022-10-01T04:39:10.175Z,60.15
2022-10-01T04:41:41.729Z,62.15
2022-10-01T04:44:10.527Z,61.80
2022-10-01T04:46:51.398Z,62.30
2022-10-01T04:49:21.862Z,66.20
2022-10-01T04:51:51.833Z,55.88
2022-10-01T04:54:21.304Z,62.65
2022-10-01T04:56:49.750Z,63.90
2022-10-01T04:59:18.469Z,68.45
2022-10-01T05:04:15.586Z,83.22
2022-10-01T05:06:47.541Z,77.55
2022-10-01T05:09:17.591Z,56.17
2022-10-01T05:11:47.545Z,93.13
2022-10-01T05:14:20.607Z,71.40
2022-10-01T05:16:49.204Z,69.75
2022-10-01T05:19:19.469Z,79.07
2022-10-01T05:21:50.599Z,81.35
2022-10-01T05:24:24.048Z,77.45
2022-10-01T05:26:56.394Z,60.45
2022-10-01T05:29:29.705Z,64.65
2022-10-01T05:32:03.595Z,55.58
2022-10-01T05:34:41.487Z,59.60
2022-10-01T05:37:12.177Z,75.47
2022-10-01T05:39:42.227Z,63.97
2022-10-01T05:42:10.667Z,57.83
2022-10-01T05:44:40.189Z,61.47
2022-10-01T05:47:08.841Z,57.63
2022-10-01T05:49:39.745Z,60.63
2022-10-01T05:52:10.175Z,66.18
2022-10-01T05:54:42.146Z,54.35
2022-10-01T05:57:12.696Z,58.28
2022-10-01T05:59:44.489Z,51.90
2022-10-01T06:02:13.165Z,55.85
2022-10-01T06:07:12.565Z,49.70
2022-10-01T06:09:41.211Z,55.70
2022-10-01T06:12:15.411Z,49.10
2022-10-01T06:14:49.510Z,60.40
2022-10-01T06:17:20.894Z,46.92
2022-10-01T06:19:51.608Z,53.78
2022-10-01T06:22:20.148Z,54.65
2022-10-01T06:24:48.910Z,50.60
2022-10-01T06:27:19.043Z,52.10
2022-10-01T06:29:47.841Z,53.25
2022-10-01T06:32:19.945Z,52.67
2022-10-01T06:34:48.619Z,52.53
2022-10-01T06:37:17.706Z,63.05
2022-10-01T06:39:49.861Z,52.03
2022-10-01T06:42:22.763Z,49.92
2022-10-01T06:44:51.341Z,38.83
2022-10-01T06:47:19.833Z,39.63
2022-10-01T06:49:50.517Z,40.00
2022-10-01T06:52:36.345Z,47.15
2022-10-01T06:55:05.345Z,42.47
2022-10-01T07:00:05.517Z,46.88
2022-10-01T07:02:34.314Z,53.92
2022-10-01T07:05:09.424Z,51.50
2022-10-01T07:07:39.820Z,62.17
2022-10-01T07:10:10.924Z,54.90
2022-10-01T07:12:43.229Z,53.17
2022-10-01T07:15:11.839Z,55.55
2022-10-01T07:17:46.145Z,49.42
2022-10-01T07:20:17.897Z,55.20
2022-10-01T07:22:54.010Z,48.83
2022-10-01T07:25:24.492Z,54.42
2022-10-01T07:28:16.813Z,43.88
2022-10-01T07:30:50.051Z,42.55
2022-10-01T07:33:20.188Z,42.72
2022-10-01T07:35:49.420Z,41.35
2022-10-01T07:38:18.360Z,43.97
2022-10-01T07:40:53.423Z,42.45
2022-10-01T07:43:23.885Z,43.53
2022-10-01T07:45:55.335Z,41.28
2022-10-01T07:48:23.988Z,43.97
2022-10-01T07:50:53.071Z,44.08
2022-10-01T07:53:21.480Z,42.53
2022-10-01T07:55:49.897Z,43.40
2022-10-01T07:58:18.906Z,42.47
2022-10-01T08:00:48.960Z,41.20
2022-10-01T08:03:17.683Z,37.88
2022-10-01T08:05:46.656Z,38.90
2022-10-01T08:10:43.240Z,35.70
2022-10-01T08:13:15.527Z,39.25
2022-10-01T08:15:44.754Z,38.55
2022-10-01T08:18:15.268Z,40.28
2022-10-01T08:20:44.393Z,38.33
2022-10-01T08:23:14.875Z,36.53
2022-10-01T08:25:44.642Z,37.65
2022-10-01T08:28:13.369Z,33.20
2022-10-01T08:33:13.112Z,37.13
2022-10-01T08:35:44.528Z,35.42
2022-10-01T08:38:14.211Z,36.33
2022-10-01T08:40:47.094Z,36.15
2022-10-01T08:43:30.031Z,31.50
2022-10-01T08:46:02.790Z,30.92
2022-10-01T08:48:39.892Z,34.70
2022-10-01T08:51:17.225Z,33.67
2022-10-01T08:53:49.679Z,31.80
2022-10-01T08:56:23.165Z,33.30
2022-10-01T08:58:59.227Z,33.17
2022-10-01T09:01:29.827Z,31.70
2022-10-01T09:03:59.779Z,31.80
2022-10-01T09:06:30.368Z,32.22
2022-10-01T09:09:12.011Z,32.88
2022-10-01T09:11:53.761Z,33.97
2022-10-01T09:14:38.069Z,29.45
2022-10-01T09:17:14.000Z,34.00
2022-10-01T09:19:59.280Z,34.83
2022-10-01T09:22:40.558Z,34.97
2022-10-01T09:25:37.079Z,31.23
2022-10-01T09:28:15.358Z,31.15
2022-10-01T09:30:47.512Z,32.58
2022-10-01T09:33:18.742Z,36.05
2022-10-01T09:36:15.378Z,29.67
2022-10-01T09:38:51.302Z,34.95
2022-10-01T09:41:20.743Z,37.17
2022-10-01T09:43:49.183Z,37.65
2022-10-01T09:46:20.232Z,33.58
2022-10-01T09:48:57.730Z,34.20
2022-10-01T09:51:34.798Z,39.05
2022-10-01T09:54:15.363Z,38.50
2022-10-01T09:56:48.180Z,35.60
2022-10-01T09:59:22.698Z,40.58
2022-10-01T10:01:56.125Z,37.65
2022-10-01T10:04:24.810Z,38.47
2022-10-01T10:07:00.845Z,39.58
2022-10-01T10:09:33.397Z,39.50
2022-10-01T10:12:07.143Z,36.88
2022-10-01T10:14:38.078Z,38.97
2022-10-01T10:17:09.904Z,34.40
2022-10-01T10:19:39.480Z,36.10
2022-10-01T10:22:13.538Z,36.65
2022-10-01T10:24:43.449Z,32.53
2022-10-01T10:27:26.918Z,39.08
2022-10-01T10:30:08.907Z,36.97
2022-10-01T10:32:37.947Z,38.88
2022-10-01T10:35:13.458Z,39.88
2022-10-01T10:37:48.617Z,39.63
2022-10-01T10:40:25.725Z,36.53
2022-10-01T10:42:59.244Z,39.95
2022-10-01T10:45:33.892Z,36.33
2022-10-01T10:48:06.069Z,36.05
2022-10-01T10:50:38.607Z,35.97
2022-10-01T10:53:22.478Z,33.83
2022-10-01T10:56:01.335Z,34.40
2022-10-01T10:58:33.453Z,38.08
2022-10-01T11:01:06.290Z,33.03
2022-10-01T11:03:39.052Z,35.83
2022-10-01T11:06:13.099Z,34.22
2022-10-01T11:08:42.798Z,31.15
2022-10-01T11:11:23.760Z,31.90
2022-10-01T11:14:08.555Z,32.75
2022-10-01T11:16:50.212Z,33.88
2022-10-01T11:19:38.538Z,33.08
2022-10-01T11:22:26.711Z,32.95
2022-10-01T11:25:32.316Z,30.27
2022-10-01T11:28:17.001Z,36.15
2022-10-01T11:30:57.139Z,35.97
2022-10-01T11:33:34.490Z,38.67
2022-10-01T11:36:08.729Z,38.08
2022-10-01T11:38:49.380Z,36.03
2022-10-01T11:41:27.097Z,40.63
2022-10-01T11:44:03.305Z,33.05
2022-10-01T11:46:46.954Z,33.08
2022-10-01T11:49:30.352Z,34.20
2022-10-01T11:52:08.873Z,41.30
2022-10-01T11:54:43.274Z,33.38
2022-10-01T11:57:34.349Z,32.42
2022-10-01T12:00:09.734Z,36.53
2022-10-01T12:02:49.600Z,34.22
2022-10-01T12:05:22.938Z,35.00
2022-10-01T12:07:58.537Z,32.13
2022-10-01T12:10:39.353Z,33.63
2022-10-01T12:13:16.774Z,35.42
2022-10-01T12:15:51.414Z,34.67
2022-10-01T12:18:25.403Z,32.22
2022-10-01T12:20:57.350Z,32.50
2022-10-01T12:23:30.344Z,33.58
2022-10-01T12:26:08.930Z,33.90
2022-10-01T12:28:44.938Z,34.22
2022-10-01T12:31:23.601Z,34.67
2022-10-01T12:34:07.901Z,33.47
2022-10-01T12:36:49.011Z,34.63
2022-10-01T12:39:32.207Z,32.72
2022-10-01T12:42:14.878Z,35.33
2022-10-01T12:44:59.940Z,31.25
2022-10-01T12:47:40.404Z,36.20
2022-10-01T12:50:23.665Z,37.95
2022-10-01T12:53:06.803Z,38.42
2022-10-01T12:55:54.944Z,33.13
2022-10-01T12:58:44.989Z,37.88
2022-10-01T13:01:31.924Z,39.95
2022-10-01T13:04:24.983Z,39.33
2022-10-01T13:07:08.038Z,42.95
2022-10-01T13:09:48.907Z,39.15
2022-10-01T13:14:56.341Z,42.67
2022-10-01T13:17:34.476Z,38.67
2022-10-01T13:20:11.981Z,37.08
2022-10-01T13:22:47.323Z,40.92
2022-10-01T13:25:31.833Z,45.00
2022-10-01T13:28:12.122Z,48.38
2022-10-01T13:30:59.243Z,43.28
2022-10-01T13:33:29.606Z,51.15
2022-10-01T13:36:01.521Z,44.60
2022-10-01T13:38:40.165Z,51.17
2022-10-01T13:44:00.893Z,49.28
2022-10-01T13:46:34.295Z,48.80
2022-10-01T13:49:08.636Z,55.13
2022-10-01T13:51:39.351Z,47.30
2022-10-01T13:54:25.200Z,48.50
2022-10-01T13:56:53.909Z,45.33
2022-10-01T13:59:34.044Z,51.92
2022-10-01T14:02:03.274Z,46.97
2022-10-01T14:04:38.975Z,45.17
2022-10-01T14:07:19.208Z,46.88
2022-10-01T14:09:52.415Z,49.75
2022-10-01T14:12:44.068Z,45.17
2022-10-01T14:15:54.848Z,43.97
2022-10-01T14:18:27.143Z,45.60
2022-10-01T14:21:03.517Z,50.47
2022-10-01T14:23:40.585Z,48.47
2022-10-01T14:26:23.184Z,48.65
2022-10-01T14:29:07.002Z,45.88
2022-10-01T14:31:50.782Z,46.70
2022-10-01T14:34:40.157Z,47.45
2022-10-01T14:37:11.662Z,45.05
2022-10-01T14:39:45.073Z,47.95
2022-10-01T14:42:17.829Z,47.85
2022-10-01T14:44:50.495Z,48.83
2022-10-01T14:47:22.168Z,47.53
2022-10-01T14:49:51.932Z,46.10
2022-10-01T14:52:24.232Z,47.42
2022-10-01T14:55:00.183Z,46.35
2022-10-01T14:57:33.337Z,48.13
2022-10-01T15:00:11.547Z,53.38
2022-10-01T15:02:46.476Z,53.67
2022-10-01T15:05:23.302Z,54.80
2022-10-01T15:07:52.081Z,48.47
2022-10-01T15:10:26.935Z,47.38
2022-10-01T15:12:57.678Z,48.33
2022-10-01T15:15:30.954Z,47.97
2022-10-01T15:17:59.635Z,72.90
2022-10-01T15:20:28.839Z,90.75
2022-10-01T15:23:01.500Z,54.67
2022-10-01T15:25:33.506Z,50.47
2022-10-01T15:28:02.469Z,54.33
2022-10-01T15:30:31.104Z,65.50
2022-10-01T15:32:59.675Z,46.58
2022-10-01T15:35:29.349Z,50.85
2022-10-01T15:38:00.709Z,82.30
2022-10-01T15:40:34.708Z,57.05
2022-10-01T15:43:26.388Z,49.15
2022-10-01T15:46:12.920Z,48.25
2022-10-01T15:48:44.361Z,60.75
2022-10-01T15:51:21.037Z,57.03
2022-10-01T15:53:49.793Z,62.70
2022-10-01T15:56:25.154Z,52.58
2022-10-01T15:58:57.000Z,73.75
2022-10-01T16:01:28.397Z,64.25
2022-10-01T16:04:03.767Z,58.90
2022-10-01T16:06:41.529Z,84.43
2022-10-01T16:09:16.101Z,60.58
2022-10-01T16:11:57.680Z,59.00
2022-10-01T16:14:32.509Z,61.10
2022-10-01T16:17:33.167Z,53.50
2022-10-01T16:20:39.943Z,50.88
2022-10-01T16:23:36.562Z,53.55
2022-10-01T16:26:39.108Z,53.65
2022-10-01T16:29:36.694Z,56.78
2022-10-01T16:32:12.826Z,53.00
2022-10-01T16:34:43.113Z,49.65
2022-10-01T16:37:13.213Z,54.00
2022-10-01T16:39:41.869Z,53.63
2022-10-01T16:42:23.842Z,60.88
2022-10-01T16:44:54.519Z,58.65
2022-10-01T16:47:25.950Z,60.75
2022-10-01T16:49:54.512Z,54.80
2022-10-01T16:52:23.019Z,60.00
2022-10-01T16:54:54.747Z,54.17
2022-10-01T16:57:23.471Z,56.00
2022-10-01T16:59:55.801Z,56.38
2022-10-01T17:02:24.480Z,63.17
2022-10-01T17:04:54.870Z,63.30
2022-10-01T17:07:23.397Z,65.43
2022-10-01T17:09:51.957Z,53.55
2022-10-01T17:12:20.599Z,57.90
2022-10-01T17:14:49.027Z,55.92
2022-10-01T17:17:19.165Z,52.90
2022-10-01T17:19:48.277Z,49.97
2022-10-01T17:22:16.783Z,52.95
2022-10-01T17:24:45.491Z,55.20
2022-10-01T17:27:13.948Z,57.30
2022-10-01T17:29:45.340Z,57.63
2022-10-01T17:32:19.057Z,54.00
2022-10-01T17:34:47.858Z,56.72
2022-10-01T17:37:16.800Z,60.17
2022-10-01T17:39:45.396Z,55.28
2022-10-01T17:42:15.305Z,60.80
2022-10-01T17:44:44.004Z,61.83
2022-10-01T17:47:12.693Z,63.78
2022-10-01T17:49:50.808Z,61.65
2022-10-01T17:52:21.133Z,62.45
2022-10-01T17:54:49.847Z,58.53
2022-10-01T17:59:47.083Z,65.82
2022-10-01T18:02:39.709Z,66.70
2022-10-01T18:05:09.576Z,68.25
2022-10-01T18:07:39.603Z,66.65
2022-10-01T18:10:11.048Z,63.75
2022-10-01T18:12:39.860Z,66.82
2022-10-01T18:17:43.018Z,59.95
2022-10-01T18:20:13.632Z,65.75
2022-10-01T18:22:42.142Z,63.35
2022-10-01T18:25:10.969Z,57.92
2022-10-01T18:27:39.668Z,54.58
2022-10-01T18:30:09.755Z,54.60
2022-10-01T18:32:43.732Z,48.28
2022-10-01T18:35:21.660Z,49.28
2022-10-01T18:37:53.892Z,40.35
2022-10-01T18:40:24.971Z,46.30
2022-10-01T18:43:00.622Z,43.05
2022-10-01T18:45:50.906Z,41.60
2022-10-01T18:48:52.269Z,39.17
2022-10-01T18:51:35.284Z,38.33
2022-10-01T18:54:48.731Z,37.35
2022-10-01T18:57:31.939Z,36.65
2022-10-01T19:00:21.039Z,34.97
2022-10-01T19:03:11.247Z,39.38
2022-10-01T19:05:56.943Z,37.75
2022-10-01T19:08:38.769Z,37.30
2022-10-01T19:11:18.104Z,37.30
2022-10-01T19:13:55.429Z,34.55
2022-10-01T19:16:39.844Z,35.55
2022-10-01T19:19:28.784Z,35.08
2022-10-01T19:24:58.004Z,35.63
2022-10-01T19:27:49.511Z,39.58
2022-10-01T19:30:20.476Z,40.20
2022-10-01T19:32:55.165Z,34.05
2022-10-01T19:35:28.160Z,30.23
2022-10-01T19:38:02.695Z,32.72
2022-10-01T19:40:38.194Z,29.00
2022-10-01T19:43:17.247Z,25.50
2022-10-01T19:45:51.481Z,24.73
2022-10-01T19:48:29.241Z,15.75
2022-10-01T19:51:03.787Z,19.20
2022-10-01T19:53:34.795Z,18.95
2022-10-01T19:56:05.805Z,17.05
2022-10-01T19:58:34.597Z,17.65
2022-10-01T20:03:39.347Z,18.70
2022-10-01T20:06:16.849Z,19.77
2022-10-01T20:08:52.844Z,24.13
2022-10-01T20:11:29.179Z,17.73
2022-10-01T20:14:34.999Z,29.42
2022-10-01T20:17:23.764Z,21.80
2022-10-01T20:22:36.102Z,23.92
2022-10-01T20:25:12.998Z,21.40
2022-10-01T20:27:55.046Z,33.00
2022-10-01T20:30:24.013Z,25.17
2022-10-01T20:35:31.265Z,23.95
2022-10-01T20:38:07.004Z,22.73
2022-10-01T20:40:40.760Z,20.60
2022-10-01T20:43:17.916Z,21.77
2022-10-01T20:45:49.786Z,24.52
2022-10-01T20:48:23.951Z,23.00
2022-10-01T20:50:55.541Z,22.63
2022-10-01T20:53:31.392Z,26.25
2022-10-01T20:56:06.163Z,23.95
2022-10-01T20:58:44.658Z,22.45
2022-10-01T21:01:20.733Z,21.70
2022-10-01T21:03:55.020Z,23.42
2022-10-01T21:06:30.245Z,20.60
2022-10-01T21:09:01.928Z,21.88
2022-10-01T21:11:34.431Z,22.55
2022-10-01T21:14:15.696Z,22.02
2022-10-01T21:17:08.988Z,21.50
2022-10-01T21:19:50.118Z,25.55
2022-10-01T21:22:34.539Z,21.83
2022-10-01T21:25:11.195Z,23.88
2022-10-01T21:28:06.412Z,22.92
2022-10-01T21:30:57.105Z,24.10
2022-10-01T21:33:28.331Z,23.25
2022-10-01T21:36:03.183Z,23.35
2022-10-01T21:38:39.301Z,24.00
2022-10-01T21:41:21.422Z,22.80
2022-10-01T21:44:11.426Z,22.98
2022-10-01T21:46:50.509Z,21.25
2022-10-01T21:49:24.534Z,19.92
2022-10-01T21:52:08.224Z,20.85
2022-10-01T21:55:31.976Z,20.98
2022-10-01T21:58:16.371Z,20.67
2022-10-01T22:00:52.699Z,19.13
2022-10-01T22:03:31.897Z,22.45
2022-10-01T22:06:09.255Z,22.77
2022-10-01T22:08:49.631Z,24.48
2022-10-01T22:11:21.558Z,25.83
2022-10-01T22:13:53.800Z,23.92
2022-10-01T22:16:26.461Z,26.13
2022-10-01T22:18:58.844Z,25.15
2022-10-01T22:21:34.818Z,25.90
2022-10-01T22:24:07.657Z,26.08
2022-10-01T22:26:41.191Z,27.25
2022-10-01T22:29:14.809Z,29.73
2022-10-01T22:31:47.294Z,26.92
2022-10-01T22:34:22.627Z,28.08
2022-10-01T22:36:57.800Z,25.98
2022-10-01T22:39:30.116Z,24.92
2022-10-01T22:42:05.359Z,26.63
2022-10-01T22:44:33.846Z,22.15
2022-10-01T22:47:23.609Z,24.30
2022-10-01T22:50:14.200Z,22.42
2022-10-01T22:52:51.667Z,19.95
2022-10-01T22:55:29.935Z,22.33
2022-10-01T22:58:26.152Z,18.08
2022-10-01T23:01:07.435Z,19.20
2022-10-01T23:03:50.734Z,20.40
2022-10-01T23:06:28.352Z,17.58
2022-10-01T23:09:04.675Z,15.98
2022-10-01T23:11:42.538Z,14.85
2022-10-01T23:14:23.531Z,15.85
2022-10-01T23:16:59.301Z,15.32
2022-10-01T23:19:40.408Z,13.82
2022-10-01T23:22:23.013Z,13.63
2022-10-01T23:25:04.348Z,16.25
2022-10-01T23:27:42.366Z,13.70
2022-10-01T23:30:14.449Z,14.82
2022-10-01T23:33:02.243Z,11.20
2022-10-01T23:35:41.688Z,13.13
2022-10-01T23:38:25.772Z,15.43
2022-10-01T23:40:55.807Z,12.50
2022-10-01T23:43:30.250Z,12.30
2022-10-01T23:46:03.806Z,11.65
2022-10-01T23:48:39.452Z,13.18
2022-10-01T23:51:13.513Z,10.45
2022-10-01T23:53:49.584Z,12.65
2022-10-01T23:56:39.984Z,9.50
2022-10-01T23:59:16.556Z,10.27
